Time;durP1;ratioP1;P1;durP2;ratioP2;P2;SDS_P1;SDS_P2;PMS_P1;PMS_P2;Temp;Humidity;BMP_temperature;BMP_pressure;BME280_temperature;BME280_humidity;BME280_pressure;Samples;Min_cycle;Max_cycle;Signal;HPM_P1;HPM_P2
2021/07/21 00:00:40;;;;;;;8.15;3.35;;;;;;;;;;6244956;23;20027;-72
2021/07/21 00:03:06;;;;;;;7.57;3.70;;;;;;;;;;6245020;23;20004;-70
2021/07/21 00:05:34;;;;;;;8.60;3.70;;;;;;;;;;6246926;23;20004;-77
2021/07/21 00:08:00;;;;;;;5.82;3.55;;;;;;;;;;6244933;23;20330;-73
2021/07/21 00:10:27;;;;;;;7.78;3.83;;;;;;;;;;6247262;23;20004;-77
2021/07/21 00:15:47;;;;;;;8.13;3.80;;;;;;;;;;6246515;23;20019;-70
2021/07/21 00:18:20;;;;;;;8.52;3.80;;;;;;;;;;6244965;23;20019;-70
2021/07/21 00:20:48;;;;;;;9.00;4.38;;;;;;;;;;6245035;23;20043;-76
2021/07/21 00:23:17;;;;;;;7.57;3.60;;;;;;;;;;6244868;23;20472;-70
2021/07/21 00:25:44;;;;;;;9.60;4.28;;;;;;;;;;6244985;23;20008;-71
2021/07/21 00:28:10;;;;;;;7.45;4.03;;;;;;;;;;6246671;23;20000;-76
2021/07/21 00:30:36;;;;;;;6.07;3.60;;;;;;;;;;6246717;23;20012;-69
2021/07/21 00:33:03;;;;;;;7.78;3.78;;;;;;;;;;6244871;23;20005;-70
2021/07/21 00:35:29;;;;;;;9.00;3.67;;;;;;;;;;6246499;23;20492;-72
2021/07/21 00:37:55;;;;;;;7.25;4.13;;;;;;;;;;6219520;23;20004;-70
2021/07/21 00:40:22;;;;;;;8.77;3.92;;;;;;;;;;6246986;23;20359;-70
2021/07/21 00:42:48;;;;;;;7.60;4.10;;;;;;;;;;6219397;23;20004;-71
2021/07/21 00:45:14;;;;;;;8.27;3.75;;;;;;;;;;6246613;23;20004;-70
2021/07/21 00:47:41;;;;;;;7.75;4.07;;;;;;;;;;6246103;23;20422;-76
2021/07/21 00:50:09;;;;;;;8.60;4.70;;;;;;;;;;6246634;23;20031;-70
2021/07/21 00:52:39;;;;;;;9.20;4.00;;;;;;;;;;6246182;23;20058;-78
2021/07/21 00:55:06;;;;;;;8.45;3.50;;;;;;;;;;6246222;23;19997;-70
2021/07/21 00:57:33;;;;;;;7.93;3.83;;;;;;;;;;6246647;23;20008;-77
2021/07/21 00:59:59;;;;;;;10.68;4.20;;;;;;;;;;6219530;23;20000;-78
2021/07/21 01:02:25;;;;;;;8.77;3.55;;;;;;;;;;6246345;23;20039;-79
2021/07/21 01:04:52;;;;;;;9.95;4.22;;;;;;;;;;6246545;23;20358;-77
2021/07/21 01:07:19;;;;;;;9.32;4.30;;;;;;;;;;6246604;23;20023;-70
2021/07/21 01:09:46;;;;;;;10.18;3.92;;;;;;;;;;6246083;23;20005;-79
2021/07/21 01:12:19;;;;;;;31.33;4.50;;;;;;;;;;6246608;23;20028;-76
2021/07/21 01:14:57;;;;;;;12.48;4.53;;;;;;;;;;6219719;23;20008;-69
2021/07/21 01:17:27;;;;;;;9.38;4.10;;;;;;;;;;6219691;23;20338;-77
2021/07/21 01:20:06;;;;;;;8.18;4.28;;;;;;;;;;6219344;23;20011;-75
2021/07/21 01:22:36;;;;;;;9.23;4.78;;;;;;;;;;6219410;23;20004;-72
2021/07/21 01:25:14;;;;;;;8.15;3.92;;;;;;;;;;6219917;23;20000;-81
2021/07/21 01:27:52;;;;;;;8.13;4.78;;;;;;;;;;6219559;23;20016;-71
2021/07/21 01:30:25;;;;;;;11.88;4.55;;;;;;;;;;6219239;23;20000;-70
2021/07/21 01:32:58;;;;;;;9.45;4.68;;;;;;;;;;6246991;23;20306;-82
2021/07/21 01:35:26;;;;;;;11.07;5.00;;;;;;;;;;6223432;23;20430;-83
2021/07/21 01:37:55;;;;;;;11.63;5.20;;;;;;;;;;6246107;23;20374;-69
2021/07/21 01:40:26;;;;;;;17.80;5.28;;;;;;;;;;6246146;23;20007;-69
2021/07/21 01:42:56;;;;;;;13.13;5.78;;;;;;;;;;6244736;23;20058;-85
2021/07/21 01:45:23;;;;;;;13.20;6.45;;;;;;;;;;6245490;23;20011;-86
2021/07/21 01:47:49;;;;;;;12.43;5.68;;;;;;;;;;6244555;23;20063;-86
2021/07/21 01:50:16;;;;;;;9.43;5.70;;;;;;;;;;6247052;23;20054;-80
2021/07/21 01:52:48;;;;;;;10.80;5.50;;;;;;;;;;6245896;23;20004;-73
2021/07/21 01:55:16;;;;;;;9.63;4.95;;;;;;;;;;6246703;23;20076;-75
2021/07/21 01:57:42;;;;;;;10.60;5.10;;;;;;;;;;6246665;23;20358;-82
2021/07/21 02:00:10;;;;;;;13.60;5.50;;;;;;;;;;6245037;23;20370;-78
2021/07/21 02:02:37;;;;;;;9.65;4.60;;;;;;;;;;6246260;23;20012;-73
2021/07/21 02:05:05;;;;;;;10.15;4.30;;;;;;;;;;6247814;23;20004;-78
2021/07/21 02:07:32;;;;;;;8.50;4.70;;;;;;;;;;6248112;23;20011;-77
2021/07/21 02:09:59;;;;;;;6.55;4.43;;;;;;;;;;6248028;23;20065;-74
2021/07/21 02:12:27;;;;;;;9.50;4.88;;;;;;;;;;6248120;23;20008;-78
2021/07/21 02:14:53;;;;;;;12.02;5.22;;;;;;;;;;6247596;23;20008;-73
2021/07/21 02:17:20;;;;;;;12.27;5.10;;;;;;;;;;6247610;23;20074;-76
2021/07/21 02:19:48;;;;;;;9.73;5.00;;;;;;;;;;6246132;23;20540;-70
2021/07/21 02:22:18;;;;;;;8.18;4.13;;;;;;;;;;6246983;23;20145;-77
2021/07/21 02:24:46;;;;;;;9.48;4.45;;;;;;;;;;6246005;23;20004;-76
2021/07/21 02:27:12;;;;;;;7.78;4.28;;;;;;;;;;6246051;23;20008;-78
2021/07/21 02:29:38;;;;;;;6.93;4.30;;;;;;;;;;6247622;23;20000;-69
2021/07/21 02:32:10;;;;;;;11.07;5.25;;;;;;;;;;6247914;23;20304;-74
2021/07/21 02:34:37;;;;;;;8.90;4.60;;;;;;;;;;6245909;23;20456;-70
2021/07/21 02:37:03;;;;;;;9.38;4.80;;;;;;;;;;6247266;23;20083;-73
2021/07/21 02:39:30;;;;;;;11.93;4.40;;;;;;;;;;6248097;23;20074;-69
2021/07/21 02:41:56;;;;;;;7.45;4.47;;;;;;;;;;6247465;23;20035;-79
2021/07/21 02:44:23;;;;;;;8.20;4.30;;;;;;;;;;6248305;23;20012;-82
2021/07/21 02:46:49;;;;;;;16.77;5.43;;;;;;;;;;6220672;23;20027;-70
2021/07/21 02:49:19;;;;;;;11.52;4.78;;;;;;;;;;6248173;23;20462;-81
2021/07/21 02:51:45;;;;;;;8.43;4.55;;;;;;;;;;6220530;23;20000;-69
2021/07/21 02:54:11;;;;;;;9.70;4.53;;;;;;;;;;6247514;23;20004;-80
2021/07/21 02:56:42;;;;;;;9.05;4.38;;;;;;;;;;6247859;23;20457;-79
2021/07/21 02:59:13;;;;;;;10.38;5.45;;;;;;;;;;6220582;23;20053;-80
2021/07/21 03:01:45;;;;;;;10.02;4.72;;;;;;;;;;6220443;23;20018;-78
2021/07/21 03:04:12;;;;;;;11.88;5.03;;;;;;;;;;6220450;23;20397;-70
2021/07/21 03:06:39;;;;;;;13.55;4.90;;;;;;;;;;6247171;23;20063;-75
2021/07/21 03:09:05;;;;;;;10.25;4.97;;;;;;;;;;6247051;23;20333;-76
2021/07/21 03:11:34;;;;;;;8.35;4.63;;;;;;;;;;6246957;23;20043;-76
2021/07/21 03:14:02;;;;;;;9.43;5.00;;;;;;;;;;6220257;23;20004;-80
2021/07/21 03:16:30;;;;;;;9.68;4.70;;;;;;;;;;6247063;23;20012;-70
2021/07/21 03:19:03;;;;;;;7.07;4.50;;;;;;;;;;6220278;23;20505;-80
2021/07/21 03:21:30;;;;;;;8.82;4.55;;;;;;;;;;6247071;23;20000;-81
2021/07/21 03:23:56;;;;;;;9.77;5.10;;;;;;;;;;6220139;23;20008;-80
2021/07/21 03:26:23;;;;;;;7.70;4.03;;;;;;;;;;6247004;23;20034;-73
2021/07/21 03:28:50;;;;;;;10.30;4.80;;;;;;;;;;6246814;23;20027;-69
2021/07/21 03:31:17;;;;;;;8.18;4.22;;;;;;;;;;6247107;23;20033;-77
2021/07/21 03:33:45;;;;;;;8.90;4.70;;;;;;;;;;6246908;23;20024;-78
2021/07/21 03:36:11;;;;;;;9.48;4.28;;;;;;;;;;6233874;23;20027;-70
2021/07/21 03:38:39;;;;;;;10.52;4.40;;;;;;;;;;6247214;23;20000;-79
2021/07/21 03:41:05;;;;;;;8.60;4.65;;;;;;;;;;6247028;23;20004;-79
2021/07/21 03:43:32;;;;;;;8.25;4.22;;;;;;;;;;6247386;23;20430;-68
2021/07/21 03:46:00;;;;;;;7.95;4.40;;;;;;;;;;6246783;23;20008;-79
2021/07/21 03:48:27;;;;;;;8.23;4.53;;;;;;;;;;6247102;23;20338;-70
2021/07/21 03:50:56;;;;;;;8.50;3.90;;;;;;;;;;6246805;23;20004;-77
2021/07/21 03:53:24;;;;;;;8.07;3.92;;;;;;;;;;6245267;23;20126;-77
2021/07/21 03:55:50;;;;;;;10.82;3.88;;;;;;;;;;6246658;23;20012;-70
2021/07/21 03:58:16;;;;;;;8.98;4.20;;;;;;;;;;6246713;23;20078;-79
2021/07/21 04:00:43;;;;;;;10.13;4.20;;;;;;;;;;6246950;23;20015;-78
2021/07/21 04:03:10;;;;;;;7.25;4.22;;;;;;;;;;6247053;23;20000;-82
2021/07/21 04:05:37;;;;;;;7.65;4.10;;;;;;;;;;6246982;23;20015;-73
2021/07/21 04:08:03;;;;;;;10.77;4.00;;;;;;;;;;6246554;23;20062;-71
2021/07/21 04:10:30;;;;;;;8.82;3.60;;;;;;;;;;6245173;23;20004;-76
2021/07/21 04:12:58;;;;;;;7.80;3.30;;;;;;;;;;6245076;23;20389;-82
2021/07/21 04:15:25;;;;;;;6.15;3.33;;;;;;;;;;6247264;23;20000;-79
2021/07/21 04:17:53;;;;;;;9.70;3.10;;;;;;;;;;6246482;23;20083;-68
2021/07/21 04:20:20;;;;;;;9.85;3.33;;;;;;;;;;6246516;23;20075;-78
2021/07/21 04:22:49;;;;;;;6.30;3.25;;;;;;;;;;6246519;23;20012;-78
2021/07/21 04:25:17;;;;;;;6.13;2.58;;;;;;;;;;6244819;23;20067;-70
2021/07/21 04:27:43;;;;;;;7.60;2.63;;;;;;;;;;6246467;23;20008;-72
2021/07/21 04:30:11;;;;;;;5.75;2.50;;;;;;;;;;6246720;23;20319;-78
2021/07/21 04:32:37;;;;;;;10.13;2.55;;;;;;;;;;6246357;23;20464;-78
2021/07/21 04:35:05;;;;;;;7.53;2.58;;;;;;;;;;6244639;23;20024;-74
2021/07/21 04:37:32;;;;;;;4.68;2.13;;;;;;;;;;6246458;23;20012;-77
2021/07/21 04:39:59;;;;;;;3.88;2.05;;;;;;;;;;6246052;23;20000;-70
2021/07/21 04:42:26;;;;;;;4.85;1.90;;;;;;;;;;6219444;23;20008;-70
2021/07/21 04:44:52;;;;;;;6.38;2.05;;;;;;;;;;6219520;23;20007;-70
2021/07/21 04:47:19;;;;;;;3.60;1.80;;;;;;;;;;6219537;23;20051;-76
2021/07/21 04:49:45;;;;;;;4.78;2.10;;;;;;;;;;6246136;23;20004;-70
2021/07/21 04:52:14;;;;;;;3.20;1.67;;;;;;;;;;6219374;23;20006;-76
2021/07/21 04:54:40;;;;;;;3.10;1.80;;;;;;;;;;6219356;23;20004;-77
2021/07/21 04:57:10;;;;;;;4.85;2.30;;;;;;;;;;6219413;23;20016;-70
2021/07/21 04:59:37;;;;;;;5.38;2.10;;;;;;;;;;6219423;23;20004;-77
2021/07/21 05:02:04;;;;;;;5.45;1.88;;;;;;;;;;6219233;23;20008;-69
2021/07/21 05:04:30;;;;;;;9.55;2.42;;;;;;;;;;6219996;23;20012;-72
2021/07/21 05:06:56;;;;;;;5.80;2.13;;;;;;;;;;6219103;23;20008;-73
2021/07/21 05:09:22;;;;;;;4.65;1.80;;;;;;;;;;6219343;23;20007;-70
2021/07/21 05:11:48;;;;;;;3.28;1.73;;;;;;;;;;6246833;23;20028;-77
2021/07/21 05:14:14;;;;;;;4.57;1.85;;;;;;;;;;6246553;23;20361;-69
2021/07/21 05:16:40;;;;;;;3.80;1.95;;;;;;;;;;6246370;23;20017;-68
2021/07/21 05:19:09;;;;;;;3.92;2.17;;;;;;;;;;6245955;23;20438;-69
2021/07/21 05:21:35;;;;;;;6.47;2.15;;;;;;;;;;6248872;23;20004;-91
2021/07/21 05:24:01;;;;;;;7.10;2.25;;;;;;;;;;6247495;23;20024;-88
2021/07/21 05:26:31;;;;;;;4.65;1.80;;;;;;;;;;6220561;23;20000;-88
2021/07/21 05:28:57;;;;;;;4.05;2.00;;;;;;;;;;6246818;23;20010;-83
2021/07/21 05:31:24;;;;;;;4.50;2.10;;;;;;;;;;6219654;23;20128;-84
2021/07/21 05:33:50;;;;;;;3.47;1.88;;;;;;;;;;6219526;23;20010;-84
2021/07/21 05:36:18;;;;;;;4.88;2.05;;;;;;;;;;6247946;23;20023;-84
2021/07/21 05:38:44;;;;;;;5.68;1.95;;;;;;;;;;6222487;23;20381;-86
2021/07/21 05:41:11;;;;;;;9.10;1.65;;;;;;;;;;6221736;23;20004;-83
2021/07/21 05:43:37;;;;;;;3.03;1.55;;;;;;;;;;6221423;23;20422;-83
2021/07/21 05:46:03;;;;;;;4.32;2.05;;;;;;;;;;6222838;23;20023;-84
2021/07/21 05:48:29;;;;;;;5.53;1.77;;;;;;;;;;6221714;23;20001;-85
2021/07/21 05:50:55;;;;;;;3.45;1.60;;;;;;;;;;6221683;23;20079;-82
2021/07/21 05:53:21;;;;;;;3.20;1.65;;;;;;;;;;6221805;23;20465;-84
2021/07/21 05:55:50;;;;;;;3.70;1.70;;;;;;;;;;6222190;23;20047;-81
2021/07/21 05:58:17;;;;;;;2.65;1.42;;;;;;;;;;6248953;23;20008;-78
2021/07/21 06:00:50;;;;;;;6.55;2.08;;;;;;;;;;6250258;23;20001;-79
2021/07/21 06:03:32;;;;;;;3.88;1.73;;;;;;;;;;6257125;23;20008;-81
2021/07/21 06:05:59;;;;;;;3.03;1.40;;;;;;;;;;6189173;23;20519;-80
2021/07/21 06:08:25;;;;;;;3.67;1.77;;;;;;;;;;6218516;23;20007;-80
2021/07/21 06:10:51;;;;;;;2.90;1.73;;;;;;;;;;6250506;23;20000;-80
2021/07/21 06:13:21;;;;;;;6.97;1.95;;;;;;;;;;6225176;23;20004;-80
2021/07/21 06:15:51;;;;;;;3.05;1.60;;;;;;;;;;6250568;23;20007;-81
2021/07/21 06:18:17;;;;;;;5.00;1.40;;;;;;;;;;6225897;23;20440;-80
2021/07/21 06:20:49;;;;;;;3.08;1.42;;;;;;;;;;6251039;23;20007;-80
2021/07/21 06:23:15;;;;;;;3.47;1.73;;;;;;;;;;6248583;23;20007;-80
2021/07/21 06:25:44;;;;;;;3.25;1.50;;;;;;;;;;6222940;23;20012;-82
2021/07/21 06:28:10;;;;;;;3.35;1.70;;;;;;;;;;6222782;23;20028;-81
2021/07/21 06:30:37;;;;;;;7.80;1.55;;;;;;;;;;6222835;23;20012;-81
2021/07/21 06:33:03;;;;;;;2.95;1.38;;;;;;;;;;6222559;23;20029;-80
2021/07/21 06:35:29;;;;;;;3.05;1.63;;;;;;;;;;6227211;23;20019;-81
2021/07/21 06:37:55;;;;;;;4.72;1.40;;;;;;;;;;6247587;23;20016;-79
2021/07/21 06:40:21;;;;;;;3.90;1.40;;;;;;;;;;6248559;23;20000;-83
2021/07/21 06:42:51;;;;;;;4.57;1.80;;;;;;;;;;6249794;23;20334;-81
2021/07/21 06:45:18;;;;;;;2.58;1.35;;;;;;;;;;6252247;23;20007;-81
2021/07/21 06:47:53;;;;;;;3.17;1.50;;;;;;;;;;6253509;23;20070;-80
2021/07/21 06:50:19;;;;;;;3.25;1.13;;;;;;;;;;6251395;23;20058;-80
2021/07/21 06:52:46;;;;;;;5.45;1.77;;;;;;;;;;6247841;23;20016;-82
2021/07/21 06:55:14;;;;;;;4.43;1.58;;;;;;;;;;6249429;23;20000;-80
2021/07/21 06:57:40;;;;;;;4.05;1.40;;;;;;;;;;6248811;23;19996;-81
2021/07/21 07:00:10;;;;;;;2.78;1.30;;;;;;;;;;6247623;23;20014;-87
2021/07/21 07:02:37;;;;;;;1.90;1.20;;;;;;;;;;6249804;23;20071;-87
2021/07/21 07:05:07;;;;;;;3.22;1.55;;;;;;;;;;6220402;23;20442;-81
2021/07/21 07:07:37;;;;;;;6.50;1.50;;;;;;;;;;6245188;23;20016;-84
2021/07/21 07:10:04;;;;;;;2.67;1.50;;;;;;;;;;6245081;23;20417;-82
2021/07/21 07:12:31;;;;;;;2.42;1.15;;;;;;;;;;6247938;23;20004;-84
2021/07/21 07:14:57;;;;;;;6.43;1.67;;;;;;;;;;6247301;23;20009;-82
2021/07/21 07:17:25;;;;;;;3.55;1.65;;;;;;;;;;6248471;23;20004;-80
2021/07/21 07:19:51;;;;;;;3.35;1.55;;;;;;;;;;6250245;23;20000;-90
2021/07/21 07:22:21;;;;;;;3.03;1.63;;;;;;;;;;6244591;23;20091;-83
2021/07/21 07:24:47;;;;;;;5.97;1.83;;;;;;;;;;6245885;23;20011;-95
2021/07/21 07:27:13;;;;;;;5.43;1.60;;;;;;;;;;6247677;23;20011;-88
2021/07/21 07:29:45;;;;;;;5.18;1.65;;;;;;;;;;6245301;23;20000;-85
2021/07/21 07:32:11;;;;;;;8.55;1.33;;;;;;;;;;6244911;23;20013;-81
2021/07/21 07:37:30;;;;;;;5.00;1.98;;;;;;;;;;5028492;27;20342;-81
2021/07/21 07:39:57;;;;;;;3.25;1.45;;;;;;;;;;5101448;28;20474;-83
2021/07/21 07:42:23;;;;;;;2.50;1.30;;;;;;;;;;5034579;28;20022;-90
2021/07/21 07:44:49;;;;;;;2.47;1.50;;;;;;;;;;5031727;28;20026;-82
2021/07/21 07:47:18;;;;;;;3.38;1.65;;;;;;;;;;5042531;28;20046;-93
2021/07/21 07:49:45;;;;;;;6.13;1.50;;;;;;;;;;5030338;28;20061;-86
2021/07/21 07:52:11;;;;;;;4.70;1.52;;;;;;;;;;5100283;28;20034;-82
2021/07/21 07:54:37;;;;;;;2.70;1.42;;;;;;;;;;5100085;28;20505;-86
2021/07/21 07:57:03;;;;;;;4.68;1.52;;;;;;;;;;5099270;28;20406;-84
2021/07/21 07:59:36;;;;;;;2.90;1.60;;;;;;;;;;5031324;28;20033;-85
2021/07/21 08:02:02;;;;;;;3.75;1.58;;;;;;;;;;5101371;28;20034;-93
2021/07/21 08:04:29;;;;;;;3.22;1.90;;;;;;;;;;5099882;28;20061;-83
2021/07/21 08:06:55;;;;;;;3.75;1.48;;;;;;;;;;5027423;28;20394;-83
2021/07/21 08:09:21;;;;;;;2.25;1.50;;;;;;;;;;5027299;28;20067;-86
2021/07/21 08:11:48;;;;;;;5.55;1.73;;;;;;;;;;5096285;28;20030;-85
2021/07/21 08:14:18;;;;;;;4.28;1.80;;;;;;;;;;5096005;28;20037;-85
2021/07/21 08:16:45;;;;;;;2.97;1.67;;;;;;;;;;5095940;28;20049;-86
2021/07/21 08:19:11;;;;;;;3.65;1.90;;;;;;;;;;5027049;28;20037;-83
2021/07/21 08:21:37;;;;;;;5.00;1.98;;;;;;;;;;5027061;28;20030;-84
2021/07/21 08:24:04;;;;;;;9.15;1.80;;;;;;;;;;5095685;28;20025;-84
2021/07/21 08:26:30;;;;;;;3.13;1.63;;;;;;;;;;5095219;28;20053;-84
2021/07/21 08:28:56;;;;;;;2.90;1.52;;;;;;;;;;5095288;28;20136;-84
2021/07/21 08:31:22;;;;;;;4.18;1.70;;;;;;;;;;5095150;28;20124;-85
2021/07/21 08:33:48;;;;;;;4.78;1.88;;;;;;;;;;5095158;28;20539;-87
2021/07/21 08:36:14;;;;;;;5.55;2.00;;;;;;;;;;5094739;28;20053;-85
2021/07/21 08:38:41;;;;;;;3.00;1.67;;;;;;;;;;5095073;28;20030;-86
2021/07/21 08:41:07;;;;;;;3.92;2.00;;;;;;;;;;5095749;28;20022;-85
2021/07/21 08:43:33;;;;;;;4.03;1.85;;;;;;;;;;5027196;28;20059;-91
2021/07/21 08:45:59;;;;;;;4.00;1.90;;;;;;;;;;5027546;28;20030;-87
2021/07/21 08:48:26;;;;;;;3.97;1.73;;;;;;;;;;5083557;28;20432;-87
2021/07/21 08:50:52;;;;;;;2.97;1.70;;;;;;;;;;5082288;28;20022;-84
2021/07/21 08:53:19;;;;;;;2.97;1.58;;;;;;;;;;5082217;28;20432;-89
2021/07/21 08:55:45;;;;;;;3.53;1.75;;;;;;;;;;5082492;28;20509;-86
2021/07/21 08:58:12;;;;;;;3.00;1.55;;;;;;;;;;5014006;28;20037;-92
2021/07/21 09:00:38;;;;;;;3.47;1.98;;;;;;;;;;5014427;28;20029;-92
2021/07/21 09:03:04;;;;;;;5.47;1.77;;;;;;;;;;5014039;28;20053;-86
2021/07/21 09:05:31;;;;;;;3.60;1.65;;;;;;;;;;5081333;28;20109;-85
2021/07/21 09:07:57;;;;;;;3.17;1.73;;;;;;;;;;5081238;28;20054;-90
2021/07/21 09:10:23;;;;;;;3.40;1.80;;;;;;;;;;5081896;28;20037;-84
2021/07/21 09:12:50;;;;;;;3.22;1.80;;;;;;;;;;5081389;28;20030;-84
2021/07/21 09:15:18;;;;;;;3.45;1.65;;;;;;;;;;5080984;28;20026;-83
2021/07/21 09:18:04;;;;;;;5.80;1.77;;;;;;;;;;5081674;28;20063;-89
2021/07/21 09:20:31;;;;;;;2.35;1.58;;;;;;;;;;5081748;28;20173;-85
2021/07/21 09:22:57;;;;;;;10.98;1.92;;;;;;;;;;5081358;28;20036;-84
2021/07/21 09:25:28;;;;;;;3.63;1.60;;;;;;;;;;5082149;28;20501;-93
2021/07/21 09:27:55;;;;;;;3.08;1.33;;;;;;;;;;5082298;28;20060;-92
2021/07/21 09:30:23;;;;;;;3.13;1.73;;;;;;;;;;5013286;28;20030;-88
2021/07/21 09:33:09;;;;;;;3.60;1.73;;;;;;;;;;5014072;28;20030;-87
2021/07/21 09:35:40;;;;;;;3.58;1.90;;;;;;;;;;5081523;28;20483;-84
2021/07/21 09:38:10;;;;;;;2.78;1.67;;;;;;;;;;5080926;28;20029;-90
2021/07/21 09:40:38;;;;;;;3.03;1.60;;;;;;;;;;5012559;28;20022;-83
2021/07/21 09:43:10;;;;;;;15.85;1.55;;;;;;;;;;5080738;28;20112;-84
2021/07/21 09:45:42;;;;;;;3.00;1.73;;;;;;;;;;5081160;28;20087;-85
2021/07/21 09:48:09;;;;;;;3.15;1.65;;;;;;;;;;5081483;28;20113;-90
2021/07/21 09:50:38;;;;;;;4.50;2.15;;;;;;;;;;5080888;28;20071;-85
2021/07/21 09:53:10;;;;;;;5.38;1.98;;;;;;;;;;5012470;28;20034;-87
2021/07/21 09:55:38;;;;;;;4.85;1.77;;;;;;;;;;5012182;28;20028;-87
2021/07/21 09:58:05;;;;;;;5.72;2.05;;;;;;;;;;5079464;28;20109;-84
2021/07/21 10:00:39;;;;;;;3.92;2.10;;;;;;;;;;5011790;28;20432;-89
2021/07/21 10:03:24;;;;;;;3.75;1.83;;;;;;;;;;5080240;28;20486;-85
2021/07/21 10:05:57;;;;;;;2.83;1.50;;;;;;;;;;5080761;28;20025;-85
2021/07/21 10:08:27;;;;;;;5.07;1.90;;;;;;;;;;5080545;28;20026;-85
2021/07/21 10:10:54;;;;;;;5.57;1.67;;;;;;;;;;5080058;28;20082;-86
2021/07/21 10:13:20;;;;;;;3.28;1.30;;;;;;;;;;5012339;28;20588;-86
2021/07/21 10:15:47;;;;;;;6.85;1.95;;;;;;;;;;5080059;28;20162;-83
2021/07/21 10:18:15;;;;;;;3.20;1.83;;;;;;;;;;5079970;28;20428;-85
2021/07/21 10:20:42;;;;;;;3.53;1.92;;;;;;;;;;5080475;28;20029;-86
2021/07/21 10:23:08;;;;;;;7.57;2.08;;;;;;;;;;5080168;28;20417;-85
2021/07/21 10:25:35;;;;;;;3.08;1.80;;;;;;;;;;5080482;28;20025;-87
2021/07/21 10:28:01;;;;;;;4.28;1.90;;;;;;;;;;5080007;28;20553;-88
2021/07/21 10:30:30;;;;;;;3.17;1.98;;;;;;;;;;5013298;28;20424;-86
2021/07/21 10:32:56;;;;;;;5.00;1.73;;;;;;;;;;5079780;28;20076;-87
2021/07/21 10:35:27;;;;;;;3.42;1.67;;;;;;;;;;5093614;28;20044;-88
2021/07/21 10:37:53;;;;;;;4.20;1.80;;;;;;;;;;5093661;28;20047;-85
2021/07/21 10:40:23;;;;;;;5.30;2.00;;;;;;;;;;5094674;28;20522;-86
2021/07/21 10:42:57;;;;;;;3.35;1.90;;;;;;;;;;5093568;28;20063;-87
2021/07/21 10:45:27;;;;;;;3.78;1.75;;;;;;;;;;5093458;28;20055;-84
2021/07/21 10:50:56;;;;;;;11.73;1.88;;;;;;;;;;5094642;28;20119;-86
2021/07/21 10:53:30;;;;;;;4.00;1.80;;;;;;;;;;5094738;28;20077;-86
2021/07/21 10:59:11;;;;;;;7.93;2.30;;;;;;;;;;5094784;28;20078;-87
2021/07/21 11:01:39;;;;;;;6.80;2.00;;;;;;;;;;5094518;28;20093;-83
2021/07/21 11:04:05;;;;;;;3.15;1.95;;;;;;;;;;5093462;28;20074;-84
2021/07/21 11:06:42;;;;;;;4.80;1.77;;;;;;;;;;5094476;28;20020;-84
2021/07/21 11:09:15;;;;;;;4.03;2.13;;;;;;;;;;5092653;28;20024;-84
2021/07/21 11:11:41;;;;;;;3.72;2.28;;;;;;;;;;5092354;28;20028;-83
2021/07/21 11:14:09;;;;;;;3.85;1.85;;;;;;;;;;5093772;28;20028;-82
2021/07/21 11:16:46;;;;;;;3.38;1.92;;;;;;;;;;5093078;28;20069;-83
2021/07/21 11:19:25;;;;;;;4.93;2.10;;;;;;;;;;5093004;28;20038;-86
2021/07/21 11:21:59;;;;;;;9.02;2.28;;;;;;;;;;5093080;28;20051;-85
2021/07/21 11:24:26;;;;;;;4.38;2.20;;;;;;;;;;5092554;28;20029;-86
2021/07/21 11:26:53;;;;;;;5.22;1.90;;;;;;;;;;5094830;28;20103;-84
2021/07/21 11:29:25;;;;;;;4.90;2.10;;;;;;;;;;5093218;28;20051;-87
2021/07/21 11:31:54;;;;;;;5.22;2.33;;;;;;;;;;5092954;28;20020;-83
2021/07/21 11:34:30;;;;;;;3.60;2.17;;;;;;;;;;5092216;28;20059;-85
2021/07/21 11:36:58;;;;;;;5.10;2.55;;;;;;;;;;5025801;28;20088;-84
2021/07/21 11:39:42;;;;;;;4.32;2.22;;;;;;;;;;5010867;28;20033;-87
2021/07/21 11:42:12;;;;;;;6.55;2.10;;;;;;;;;;5010993;28;20034;-84
2021/07/21 11:44:40;;;;;;;5.43;2.10;;;;;;;;;;5011204;28;20014;-84
2021/07/21 11:47:10;;;;;;;5.18;2.13;;;;;;;;;;5078630;28;20463;-84
2021/07/21 11:49:36;;;;;;;5.25;2.13;;;;;;;;;;5079520;28;20026;-85
2021/07/21 11:52:07;;;;;;;3.13;1.83;;;;;;;;;;5078615;28;20493;-85
2021/07/21 11:54:37;;;;;;;4.65;2.03;;;;;;;;;;5078874;28;20026;-87
2021/07/21 11:57:05;;;;;;;6.43;2.20;;;;;;;;;;5010652;28;20109;-83
2021/07/21 11:59:31;;;;;;;4.10;2.30;;;;;;;;;;5079310;28;20022;-85
2021/07/21 12:02:26;;;;;;;5.22;2.30;;;;;;;;;;5078549;28;20109;-84
2021/07/21 12:04:53;;;;;;;10.35;2.70;;;;;;;;;;5077527;28;20041;-87
2021/07/21 12:07:21;;;;;;;5.32;2.03;;;;;;;;;;5078505;28;20022;-83
2021/07/21 12:09:48;;;;;;;6.03;2.60;;;;;;;;;;5078482;28;20124;-88
2021/07/21 12:12:16;;;;;;;6.30;2.30;;;;;;;;;;5078681;28;20030;-83
2021/07/21 12:14:47;;;;;;;4.85;2.10;;;;;;;;;;5078486;28;20175;-84
2021/07/21 12:17:15;;;;;;;3.05;1.98;;;;;;;;;;5078804;28;20038;-84
2021/07/21 12:19:42;;;;;;;3.42;1.90;;;;;;;;;;5009865;28;20029;-83
2021/07/21 12:22:12;;;;;;;4.35;2.00;;;;;;;;;;5010853;28;20026;-83
2021/07/21 12:24:40;;;;;;;5.28;2.20;;;;;;;;;;5082566;28;20058;-92
2021/07/21 12:27:08;;;;;;;4.60;2.20;;;;;;;;;;5082364;28;20025;-86
2021/07/21 12:29:34;;;;;;;6.18;2.17;;;;;;;;;;5082434;28;20542;-85
2021/07/21 12:32:03;;;;;;;4.90;2.30;;;;;;;;;;5082262;28;20030;-84
2021/07/21 12:34:29;;;;;;;4.63;2.10;;;;;;;;;;5082449;28;20033;-85
2021/07/21 12:36:56;;;;;;;6.47;2.10;;;;;;;;;;5082450;28;20076;-85
2021/07/21 12:39:26;;;;;;;4.25;1.90;;;;;;;;;;5082060;28;20104;-83
2021/07/21 12:41:52;;;;;;;5.25;2.20;;;;;;;;;;5082084;28;20029;-85
2021/07/21 12:44:22;;;;;;;3.42;2.22;;;;;;;;;;5082413;28;20063;-84
2021/07/21 12:46:48;;;;;;;4.60;2.40;;;;;;;;;;5082718;28;20113;-83
2021/07/21 12:49:14;;;;;;;3.97;2.35;;;;;;;;;;5081992;28;20034;-89
2021/07/21 12:51:43;;;;;;;4.53;2.15;;;;;;;;;;5082493;28;20105;-84
2021/07/21 12:54:09;;;;;;;11.10;2.25;;;;;;;;;;5081768;28;20034;-85
2021/07/21 12:56:37;;;;;;;4.63;2.30;;;;;;;;;;5081992;28;20041;-90
2021/07/21 12:59:07;;;;;;;3.65;1.98;;;;;;;;;;5081823;28;20026;-90
2021/07/21 13:01:33;;;;;;;4.78;2.45;;;;;;;;;;5082392;28;20029;-85
2021/07/21 13:03:59;;;;;;;4.07;2.00;;;;;;;;;;5082234;28;20102;-84
2021/07/21 13:06:26;;;;;;;4.80;2.67;;;;;;;;;;5082443;28;20359;-84
2021/07/21 13:08:52;;;;;;;4.30;2.38;;;;;;;;;;5081494;28;20120;-85
2021/07/21 13:11:20;;;;;;;4.00;2.47;;;;;;;;;;5081942;28;20113;-84
2021/07/21 13:13:53;;;;;;;4.60;2.13;;;;;;;;;;5081395;28;20113;-84
2021/07/21 13:16:24;;;;;;;5.50;2.00;;;;;;;;;;5081186;28;20045;-85
2021/07/21 13:18:51;;;;;;;4.18;2.25;;;;;;;;;;5081613;28;20468;-85
2021/07/21 13:21:21;;;;;;;5.28;2.53;;;;;;;;;;5082384;28;20069;-88
2021/07/21 13:23:48;;;;;;;5.68;2.40;;;;;;;;;;5081723;28;20056;-84
2021/07/21 13:26:14;;;;;;;4.80;2.45;;;;;;;;;;5013505;28;20087;-85
2021/07/21 13:28:45;;;;;;;3.90;2.13;;;;;;;;;;5081419;28;20086;-86
2021/07/21 13:31:21;;;;;;;3.78;2.22;;;;;;;;;;5081692;28;20030;-83
2021/07/21 13:33:48;;;;;;;4.15;2.10;;;;;;;;;;5080911;28;20033;-85
2021/07/21 13:36:16;;;;;;;5.25;2.30;;;;;;;;;;5094814;28;20064;-84
2021/07/21 13:39:02;;;;;;;5.00;2.53;;;;;;;;;;5095312;28;20047;-86
2021/07/21 13:41:30;;;;;;;8.05;2.13;;;;;;;;;;5095259;28;20031;-84
2021/07/21 13:43:57;;;;;;;3.42;1.90;;;;;;;;;;5095254;28;20024;-84
2021/07/21 13:46:33;;;;;;;3.67;2.45;;;;;;;;;;5095118;28;20035;-84
2021/07/21 13:49:07;;;;;;;4.30;2.30;;;;;;;;;;5095270;28;20378;-84
2021/07/21 13:51:47;;;;;;;4.88;2.45;;;;;;;;;;5095318;28;20024;-86
2021/07/21 13:54:24;;;;;;;4.78;2.35;;;;;;;;;;5094901;28;20031;-85
2021/07/21 13:56:53;;;;;;;5.20;2.20;;;;;;;;;;5094998;28;20032;-84
2021/07/21 13:59:19;;;;;;;12.57;2.45;;;;;;;;;;5094736;28;20047;-86
2021/07/21 14:01:45;;;;;;;4.20;2.00;;;;;;;;;;5094234;28;20028;-84
2021/07/21 14:04:12;;;;;;;3.40;1.90;;;;;;;;;;5094556;28;20020;-85
2021/07/21 14:06:39;;;;;;;4.93;2.22;;;;;;;;;;5095466;28;20020;-86
2021/07/21 14:09:06;;;;;;;4.68;2.60;;;;;;;;;;5094600;28;20514;-85
2021/07/21 14:11:33;;;;;;;4.35;2.03;;;;;;;;;;5098874;28;20020;-86
2021/07/21 14:14:09;;;;;;;11.00;2.55;;;;;;;;;;5103130;28;20032;-84
2021/07/21 14:16:36;;;;;;;3.22;2.00;;;;;;;;;;5115681;28;20040;-84
2021/07/21 14:19:03;;;;;;;7.35;2.25;;;;;;;;;;5094290;28;20377;-81
2021/07/21 14:21:30;;;;;;;4.60;2.25;;;;;;;;;;5093624;28;20031;-84
2021/07/21 14:24:00;;;;;;;6.38;2.22;;;;;;;;;;5095511;28;20423;-83
2021/07/21 14:26:27;;;;;;;6.55;2.30;;;;;;;;;;5095226;28;20081;-86
2021/07/21 14:28:54;;;;;;;7.97;2.20;;;;;;;;;;5094667;28;20052;-85
2021/07/21 14:31:20;;;;;;;6.78;2.20;;;;;;;;;;5094663;28;20069;-87
2021/07/21 14:33:47;;;;;;;3.83;2.40;;;;;;;;;;5095942;28;20027;-86
2021/07/21 14:36:13;;;;;;;5.15;2.40;;;;;;;;;;5093742;28;20051;-88
2021/07/21 14:38:41;;;;;;;5.45;2.63;;;;;;;;;;5095897;28;20031;-85
2021/07/21 14:41:08;;;;;;;5.53;2.17;;;;;;;;;;5095558;28;20027;-88
2021/07/21 14:43:38;;;;;;;5.78;2.33;;;;;;;;;;5095966;28;20492;-87
2021/07/21 14:46:06;;;;;;;9.93;2.28;;;;;;;;;;5093569;28;20190;-86
2021/07/21 14:48:35;;;;;;;4.47;2.13;;;;;;;;;;5094151;28;20086;-86
2021/07/21 14:51:01;;;;;;;6.20;2.17;;;;;;;;;;5096081;28;20047;-87
2021/07/21 14:53:28;;;;;;;3.22;1.88;;;;;;;;;;5094832;28;20020;-87
2021/07/21 14:55:54;;;;;;;5.88;2.65;;;;;;;;;;5096043;28;20127;-86
2021/07/21 14:58:20;;;;;;;3.80;2.47;;;;;;;;;;5093960;28;20032;-84